CLVO2: Canadian River, Calvin, OKla

Data processed at Wed May 22 2019 23:50


All information presented herein is the property of the government of the United States of America and may be revised or deleted at any time without prior notice.
Dissemination of this information without the expressed written consent of the Public Affairs Office, Tulsa District U.S. Army Corps of Engineers is strictly prohibited.
These data are gathered electronically and, as presented, have not undergone any form of quality control. These data are not guaranteed to be valid or correct.
Go to home page.
Go to station list.
Go to home page.

Upstream stations:

Downstream station:
Previous Day
Next Day
Current Day
    
SHEF ID:       CLVO2     Canadian River at Calvin, OK
STATION TYPE:  
Regulating: Stage =    17.00, Flow =    44266

               PRECIP     STAGE  STAGE(2)  RIV-FLOW  BAT-LOAD
                   in        ft        ft       cfs      volt
              Ccp-Rev   Ccp-Rev   Ccp-Rev   Ccp-Rev   Ccp-Rev
(US/Central)
05/22 00:00      0.00     10.72      ----      7110     12.89
05/22 01:00      0.00     10.93      ----      7712     12.81
05/22 02:00      0.00     11.19      ----      8508     12.81
05/22 03:00      0.00     11.40      ----      9192     12.81
05/22 04:00      0.00     11.60      ----      9880     12.81
05/22 05:00      0.00     11.74      ----     10383     12.81
05/22 06:00      0.00     11.86      ----     10829     12.73
05/22 07:00      0.00     11.92      ----     11057     12.73
05/22 08:00      0.00     12.01      ----     11405     12.81
05/22 09:00      0.00     12.04      ----     11523     12.97
05/22 10:00      0.00     12.06      ----     11602     13.21
05/22 11:00      0.00     12.06      ----     11602     13.29
05/22 12:00      0.00     12.09      ----     11722     13.37
05/22 13:00      0.00     12.08      ----     11682     14.24
05/22 14:00      0.00     12.14      ----     11923     14.16
05/22 15:00      0.00     12.10      ----     11762     14.16
05/22 16:00      0.00     12.15      ----     11963     13.29
05/22 17:00      0.00     12.10      ----     11762     13.21
05/22 18:00      0.00     12.21      ----     12208     13.05
05/22 19:00      0.00     12.16      ----     12004     13.05
05/22 20:00      0.00     12.13      ----     11882     13.05
05/22 21:00      0.00     12.22      ----     12249     12.97
05/22 22:00      0.00     12.19      ----     12126     12.89
05/22 23:00      0.00     12.10      ----     11762     12.89